createdAt,value
2023-04-12T00:00:15.625Z,4.10
2023-04-12T00:03:21.019Z,4.10
2023-04-12T00:06:32.526Z,4.10
2023-04-12T00:09:36.595Z,4.10
2023-04-12T00:12:38.653Z,4.10
2023-04-12T00:15:40.575Z,4.10
2023-04-12T00:18:42.646Z,4.10
2023-04-12T00:21:45.029Z,4.00
2023-04-12T00:24:47.461Z,4.00
2023-04-12T00:27:49.548Z,4.10
2023-04-12T00:30:51.413Z,4.00
2023-04-12T00:33:53.559Z,4.00
2023-04-12T00:36:55.920Z,4.00
2023-04-12T00:39:57.717Z,4.00
2023-04-12T00:42:59.596Z,4.00
2023-04-12T00:46:02.443Z,4.00
2023-04-12T00:49:05.418Z,4.00
2023-04-12T00:52:10.162Z,4.00
2023-04-12T00:55:12.199Z,4.00
2023-04-12T00:58:14.558Z,4.00
2023-04-12T01:01:19.757Z,4.00
2023-04-12T01:04:22.634Z,4.00
2023-04-12T01:07:47.818Z,3.90
2023-04-12T01:11:23.552Z,3.90
2023-04-12T01:14:49.724Z,3.90
2023-04-12T01:17:59.621Z,3.90
2023-04-12T01:21:07.078Z,3.90
2023-04-12T01:24:21.069Z,3.90
2023-04-12T01:27:48.755Z,3.90
2023-04-12T01:30:54.387Z,3.90
2023-04-12T01:33:57.904Z,3.90
2023-04-12T01:37:03.046Z,3.90
2023-04-12T01:40:06.069Z,3.90
2023-04-12T01:43:12.972Z,3.90
2023-04-12T01:46:17.413Z,3.80
2023-04-12T01:49:21.389Z,3.90
2023-04-12T01:52:26.812Z,3.90
2023-04-12T01:55:31.223Z,3.90
2023-04-12T01:58:34.115Z,3.90
2023-04-12T02:01:36.374Z,3.90
2023-04-12T02:04:39.064Z,3.90
2023-04-12T02:07:42.169Z,3.90
2023-04-12T02:10:43.965Z,4.00
2023-04-12T02:13:45.800Z,4.00
2023-04-12T02:16:48.285Z,4.00
2023-04-12T02:19:50.493Z,4.00
2023-04-12T02:22:54.020Z,4.00
2023-04-12T02:25:55.998Z,4.00
2023-04-12T02:28:58.245Z,4.00
2023-04-12T02:32:00.069Z,4.10
2023-04-12T02:35:02.853Z,4.10
2023-04-12T02:38:07.966Z,4.10
2023-04-12T02:41:09.776Z,4.10
2023-04-12T02:44:11.718Z,4.10
2023-04-12T02:47:13.807Z,4.10
2023-04-12T02:50:15.677Z,4.10
2023-04-12T02:53:18.616Z,4.10
2023-04-12T02:56:21.794Z,4.10
2023-04-12T02:59:25.311Z,4.10
2023-04-12T03:02:28.072Z,4.10
2023-04-12T03:05:30.079Z,4.10
2023-04-12T03:08:31.866Z,4.20
2023-04-12T03:11:33.810Z,4.10
2023-04-12T03:14:35.763Z,4.10
2023-04-12T03:17:37.813Z,4.10
2023-04-12T03:20:41.738Z,4.10
2023-04-12T03:23:43.926Z,4.10
2023-04-12T03:26:45.782Z,4.10
2023-04-12T03:29:47.617Z,4.10
2023-04-12T03:32:50.105Z,4.10
2023-04-12T03:35:52.280Z,4.10
2023-04-12T03:38:54.863Z,4.10
2023-04-12T03:41:56.748Z,4.10
2023-04-12T03:44:58.836Z,4.10
2023-04-12T03:48:01.464Z,4.10
2023-04-12T03:51:08.141Z,4.10
2023-04-12T03:54:11.318Z,4.10
2023-04-12T03:57:13.156Z,4.10
2023-04-12T04:00:15.416Z,4.10
2023-04-12T04:03:18.270Z,4.10
2023-04-12T04:06:20.468Z,4.10
2023-04-12T04:09:22.372Z,4.20
2023-04-12T04:12:24.253Z,4.20
2023-04-12T04:15:26.786Z,4.20
2023-04-12T04:18:28.639Z,4.20
2023-04-12T04:21:30.699Z,4.20
2023-04-12T04:24:34.299Z,4.20
2023-04-12T04:27:38.438Z,4.20
2023-04-12T04:30:40.423Z,4.20
2023-04-12T04:33:45.042Z,4.20
2023-04-12T04:36:47.027Z,4.30
2023-04-12T04:39:48.933Z,4.30
2023-04-12T04:42:57.883Z,4.30
2023-04-12T04:46:00.246Z,4.20
2023-04-12T04:49:02.585Z,4.30
2023-04-12T04:52:05.067Z,4.20
2023-04-12T04:55:09.792Z,4.30
2023-04-12T04:58:13.540Z,4.30
2023-04-12T05:01:17.041Z,4.30
2023-04-12T05:04:19.179Z,4.30
2023-04-12T05:07:21.233Z,4.30
2023-04-12T05:10:23.357Z,4.30
2023-04-12T05:13:25.249Z,4.40
2023-04-12T05:16:27.111Z,4.40
2023-04-12T05:19:29.918Z,4.40
2023-04-12T05:22:32.615Z,4.40
2023-04-12T05:25:34.535Z,4.40
2023-04-12T05:28:36.389Z,4.40
2023-04-12T05:31:38.308Z,4.40
2023-04-12T05:34:40.106Z,4.50
2023-04-12T05:37:41.873Z,4.50
2023-04-12T05:40:46.536Z,4.50
2023-04-12T05:43:48.397Z,4.50
2023-04-12T05:46:50.290Z,4.60
2023-04-12T05:49:52.089Z,4.60
2023-04-12T05:52:55.579Z,4.70
2023-04-12T05:55:57.516Z,4.70
2023-04-12T05:59:01.223Z,4.80
2023-04-12T06:02:03.120Z,4.90
2023-04-12T06:05:05.861Z,5.00
2023-04-12T06:08:08.560Z,5.10
2023-04-12T06:11:12.297Z,5.20
2023-04-12T06:14:14.236Z,5.30
2023-04-12T06:17:16.099Z,5.50
2023-04-12T06:20:18.292Z,5.60
2023-04-12T06:23:20.280Z,5.60
2023-04-12T06:26:22.259Z,5.70
2023-04-12T06:29:24.024Z,5.80
2023-04-12T06:32:25.954Z,5.80
2023-04-12T06:35:27.802Z,5.80
2023-04-12T06:38:29.803Z,5.80
2023-04-12T06:41:31.582Z,5.90
2023-04-12T06:44:33.808Z,5.90
2023-04-12T06:47:35.697Z,5.90
2023-04-12T06:50:37.576Z,5.90
2023-04-12T06:53:39.440Z,6.00
2023-04-12T06:56:41.322Z,6.00
2023-04-12T06:59:43.184Z,6.00
2023-04-12T07:02:45.112Z,6.00
2023-04-12T07:05:47.481Z,6.10
2023-04-12T07:08:50.143Z,6.10
2023-04-12T07:11:52.028Z,6.10
2023-04-12T07:14:53.853Z,6.10
2023-04-12T07:17:56.420Z,6.20
2023-04-12T07:20:59.109Z,6.20
2023-04-12T07:24:01.678Z,6.20
2023-04-12T07:27:04.289Z,6.30
2023-04-12T07:30:06.757Z,6.30
2023-04-12T07:33:19.245Z,6.40
2023-04-12T07:36:22.509Z,6.40
2023-04-12T07:39:24.402Z,6.50
2023-04-12T07:42:26.277Z,6.50
2023-04-12T07:45:28.369Z,6.60
2023-04-12T07:48:30.510Z,6.70
2023-04-12T07:51:33.066Z,6.70
2023-04-12T07:54:36.264Z,6.80
2023-04-12T07:57:38.432Z,6.90
2023-04-12T08:00:40.290Z,6.90
2023-04-12T08:03:42.207Z,6.90
2023-04-12T08:06:44.270Z,7.00
2023-04-12T08:09:47.868Z,7.00
2023-04-12T08:12:49.930Z,7.00
2023-04-12T08:15:52.609Z,7.00
2023-04-12T08:18:54.623Z,6.90
2023-04-12T08:21:57.414Z,6.90
2023-04-12T08:24:59.429Z,6.90
2023-04-12T08:28:01.357Z,6.90
2023-04-12T08:31:03.681Z,6.90
2023-04-12T08:34:05.514Z,6.80
2023-04-12T08:37:07.279Z,6.80
2023-04-12T08:40:10.026Z,6.80
2023-04-12T08:43:12.698Z,6.80
2023-04-12T08:46:16.247Z,6.70
2023-04-12T08:49:18.825Z,6.70
2023-04-12T08:52:20.639Z,6.70
2023-04-12T08:55:25.356Z,6.70
2023-04-12T08:58:27.606Z,6.80
2023-04-12T09:01:30.569Z,6.70
2023-04-12T09:04:32.572Z,6.70
2023-04-12T09:07:34.724Z,6.70
2023-04-12T09:10:38.081Z,6.70
2023-04-12T09:13:40.432Z,6.80
2023-04-12T09:16:42.813Z,6.80
2023-04-12T09:19:44.695Z,6.80
2023-04-12T09:22:47.763Z,6.80
2023-04-12T09:25:52.807Z,6.80
2023-04-12T09:28:54.692Z,6.90
2023-04-12T09:32:03.453Z,6.90
2023-04-12T09:35:06.557Z,6.90
2023-04-12T09:38:09.662Z,7.00
2023-04-12T09:41:30.608Z,7.10
2023-04-12T09:44:34.234Z,7.10
2023-04-12T09:47:40.673Z,7.20
2023-04-12T09:50:42.782Z,7.20
2023-04-12T09:53:48.483Z,7.40
2023-04-12T09:56:50.796Z,7.40
2023-04-12T10:00:00.019Z,7.40
2023-04-12T10:03:02.125Z,7.50
2023-04-12T10:06:05.418Z,7.70
2023-04-12T10:09:08.953Z,7.70
2023-04-12T10:12:11.274Z,7.70
2023-04-12T10:15:15.593Z,7.80
2023-04-12T10:18:18.992Z,7.90
2023-04-12T10:21:21.653Z,7.90
2023-04-12T10:24:28.181Z,7.90
2023-04-12T10:27:30.914Z,8.00
2023-04-12T10:30:32.762Z,8.00
2023-04-12T10:33:34.855Z,7.90
2023-04-12T10:36:59.362Z,7.90
2023-04-12T10:40:03.666Z,7.90
2023-04-12T10:43:28.886Z,7.80
2023-04-12T10:46:46.483Z,7.80
2023-04-12T10:50:20.389Z,7.80
2023-04-12T10:53:22.909Z,7.90
2023-04-12T10:56:32.732Z,8.00
2023-04-12T10:59:57.257Z,8.10
2023-04-12T11:03:12.510Z,8.20
2023-04-12T11:09:25.768Z,8.40
2023-04-12T11:12:31.123Z,8.50
2023-04-12T11:15:34.302Z,8.60
2023-04-12T11:18:36.488Z,8.60
2023-04-12T11:21:39.285Z,8.70
2023-04-12T11:24:49.557Z,8.70
2023-04-12T11:27:52.743Z,8.70
2023-04-12T11:30:55.900Z,8.70
2023-04-12T11:34:00.418Z,8.70
2023-04-12T11:37:05.816Z,8.60
2023-04-12T11:40:09.741Z,8.60
2023-04-12T11:43:11.778Z,8.60
2023-04-12T11:46:15.293Z,8.50
2023-04-12T11:49:20.986Z,8.50
2023-04-12T11:52:29.512Z,8.60
2023-04-12T11:55:31.567Z,8.60
2023-04-12T11:58:33.414Z,8.60
2023-04-12T12:01:36.292Z,8.50
2023-04-12T12:04:40.348Z,8.60
2023-04-12T12:07:42.792Z,8.60
2023-04-12T12:11:04.110Z,8.60
2023-04-12T12:14:08.348Z,8.60
2023-04-12T12:17:12.528Z,8.60
2023-04-12T12:20:24.521Z,8.70
2023-04-12T12:23:31.030Z,8.70
2023-04-12T12:26:32.895Z,8.70
2023-04-12T12:29:36.979Z,8.70
2023-04-12T12:32:40.213Z,8.70
2023-04-12T12:35:42.103Z,8.70
2023-04-12T12:38:43.936Z,8.70
2023-04-12T12:41:56.465Z,8.70
2023-04-12T12:44:58.418Z,8.70
2023-04-12T12:48:05.132Z,8.70
2023-04-12T12:51:07.307Z,8.70
2023-04-12T12:54:09.161Z,8.70
2023-04-12T12:57:10.948Z,8.70
2023-04-12T13:00:15.654Z,8.70
2023-04-12T13:03:18.088Z,8.80
2023-04-12T13:06:20.064Z,8.80
2023-04-12T13:09:21.868Z,8.80
2023-04-12T13:12:23.680Z,8.80
2023-04-12T13:15:25.605Z,8.80
2023-04-12T13:18:27.434Z,8.80
2023-04-12T13:21:29.524Z,8.70
2023-04-12T13:24:31.529Z,8.80
2023-04-12T13:27:33.473Z,8.70
2023-04-12T13:30:35.333Z,8.70
2023-04-12T13:33:37.357Z,8.70
2023-04-12T13:36:39.352Z,8.70
2023-04-12T13:39:41.384Z,8.70
2023-04-12T13:42:43.291Z,8.70
2023-04-12T13:45:45.309Z,8.70
2023-04-12T13:48:47.119Z,8.70
2023-04-12T13:51:49.078Z,8.70
2023-04-12T13:54:51.573Z,8.80
2023-04-12T13:57:53.458Z,8.80
2023-04-12T14:00:58.623Z,8.80
2023-04-12T14:04:01.286Z,8.90
2023-04-12T14:07:03.129Z,8.90
2023-04-12T14:10:05.516Z,8.90
2023-04-12T14:13:07.572Z,8.90
2023-04-12T14:16:09.956Z,8.90
2023-04-12T14:19:11.748Z,9.00
2023-04-12T14:22:13.486Z,9.00
2023-04-12T14:25:15.433Z,9.00
2023-04-12T14:28:21.977Z,9.00
2023-04-12T14:31:23.836Z,9.00
2023-04-12T14:34:26.006Z,9.10
2023-04-12T14:37:28.149Z,9.10
2023-04-12T14:40:31.211Z,9.20
2023-04-12T14:43:33.083Z,9.20
2023-04-12T14:46:35.041Z,9.20
2023-04-12T14:49:37.167Z,9.30
2023-04-12T14:52:39.244Z,9.30
2023-04-12T14:55:41.275Z,9.30
2023-04-12T14:58:43.124Z,9.30
2023-04-12T15:01:45.120Z,9.40
2023-04-12T15:04:49.588Z,9.40
2023-04-12T15:07:51.540Z,9.40
2023-04-12T15:10:53.425Z,9.50
2023-04-12T15:13:56.056Z,9.40
2023-04-12T15:16:57.955Z,9.50
2023-04-12T15:20:00.331Z,9.50
2023-04-12T15:23:02.163Z,9.50
2023-04-12T15:26:06.611Z,9.60
2023-04-12T15:29:09.525Z,9.60
2023-04-12T15:32:11.976Z,9.70
2023-04-12T15:38:23.402Z,9.70
2023-04-12T15:41:25.723Z,9.80
2023-04-12T15:44:31.845Z,9.70
2023-04-12T15:47:33.763Z,9.80
2023-04-12T15:50:35.659Z,9.80
2023-04-12T15:53:37.565Z,9.80
2023-04-12T15:56:39.872Z,9.80
2023-04-12T15:59:42.230Z,9.80
2023-04-12T16:02:50.093Z,9.80
2023-04-12T16:05:57.161Z,9.80
2023-04-12T16:08:59.248Z,9.90
2023-04-12T16:12:02.450Z,9.80
2023-04-12T16:15:04.974Z,9.80
2023-04-12T16:18:09.189Z,9.80
2023-04-12T16:21:12.871Z,9.80
2023-04-12T16:24:14.679Z,9.80
2023-04-12T16:27:16.866Z,9.70
2023-04-12T16:30:19.123Z,9.80
2023-04-12T16:33:20.934Z,9.70
2023-04-12T16:36:27.276Z,9.70
2023-04-12T16:39:29.284Z,9.70
2023-04-12T16:42:31.863Z,9.70
2023-04-12T16:45:34.130Z,9.70
2023-04-12T16:48:38.615Z,9.60
2023-04-12T16:51:40.916Z,9.60
2023-04-12T16:54:42.727Z,9.70
2023-04-12T16:57:46.347Z,9.60
2023-04-12T17:00:48.595Z,9.60
2023-04-12T17:03:50.482Z,9.70
2023-04-12T17:06:52.619Z,9.70
2023-04-12T17:09:56.034Z,9.70
2023-04-12T17:12:58.668Z,9.70
2023-04-12T17:16:00.816Z,9.70
2023-04-12T17:19:02.721Z,9.70
2023-04-12T17:22:05.110Z,9.70
2023-04-12T17:25:08.663Z,9.70
2023-04-12T17:28:10.579Z,9.70
2023-04-12T17:31:12.406Z,9.70
2023-04-12T17:34:14.323Z,9.70
2023-04-12T17:37:16.170Z,9.70
2023-04-12T17:40:18.494Z,9.70
2023-04-12T17:43:20.879Z,9.70
2023-04-12T17:46:24.226Z,9.80
2023-04-12T17:49:26.437Z,9.80
2023-04-12T17:52:28.287Z,9.80
2023-04-12T17:55:30.384Z,9.80
2023-04-12T17:58:33.924Z,9.70
2023-04-12T18:01:37.024Z,9.70
2023-04-12T18:04:41.234Z,9.80
2023-04-12T18:07:43.125Z,9.70
2023-04-12T18:10:45.902Z,9.70
2023-04-12T18:13:47.784Z,9.60
2023-04-12T18:16:49.889Z,9.60
2023-04-12T18:19:51.748Z,9.50
2023-04-12T18:22:53.593Z,9.30
2023-04-12T18:25:55.665Z,9.30
2023-04-12T18:28:58.728Z,9.20
2023-04-12T18:32:00.985Z,9.10
2023-04-12T18:35:04.682Z,9.00
2023-04-12T18:38:06.775Z,8.90
2023-04-12T18:41:12.149Z,8.80
2023-04-12T18:44:14.006Z,8.70
2023-04-12T18:47:15.848Z,8.60
2023-04-12T18:50:19.414Z,8.40
2023-04-12T18:53:21.319Z,8.50
2023-04-12T18:56:24.567Z,8.50
2023-04-12T18:59:27.438Z,8.40
2023-04-12T19:02:29.643Z,8.40
2023-04-12T19:05:31.658Z,8.40
2023-04-12T19:08:33.498Z,8.40
2023-04-12T19:11:37.117Z,8.40
2023-04-12T19:14:39.312Z,8.40
2023-04-12T19:17:44.998Z,8.40
2023-04-12T19:20:47.004Z,8.40
2023-04-12T19:23:48.977Z,8.40
2023-04-12T19:26:51.198Z,8.40
2023-04-12T19:29:53.624Z,8.40
2023-04-12T19:32:55.453Z,8.40
2023-04-12T19:35:57.750Z,8.50
2023-04-12T19:39:01.573Z,8.50
2023-04-12T19:42:04.610Z,8.50
2023-04-12T19:45:07.328Z,8.50
2023-04-12T19:48:09.349Z,8.50
2023-04-12T19:51:11.211Z,8.50
2023-04-12T19:54:13.856Z,8.50
2023-04-12T19:57:18.178Z,8.50
2023-04-12T20:00:21.035Z,8.50
2023-04-12T20:03:23.662Z,8.50
2023-04-12T20:06:28.112Z,8.50
2023-04-12T20:09:29.958Z,8.50
2023-04-12T20:12:35.081Z,8.50
2023-04-12T20:15:38.995Z,8.50
2023-04-12T20:18:41.537Z,8.40
2023-04-12T20:21:44.167Z,8.40
2023-04-12T20:24:47.652Z,8.40
2023-04-12T20:27:52.517Z,8.40
2023-04-12T20:30:54.454Z,8.40
2023-04-12T20:33:58.415Z,8.40
2023-04-12T20:37:00.228Z,8.40
2023-04-12T20:40:06.761Z,8.30
2023-04-12T20:43:08.709Z,8.30
2023-04-12T20:46:15.372Z,8.30
2023-04-12T20:49:17.313Z,8.30
2023-04-12T20:52:19.984Z,8.30
2023-04-12T20:55:25.175Z,8.30
2023-04-12T20:58:34.528Z,8.30
2023-04-12T21:01:37.134Z,8.30
2023-04-12T21:04:41.931Z,8.40
2023-04-12T21:07:43.988Z,8.30
2023-04-12T21:10:48.274Z,8.30
2023-04-12T21:13:50.878Z,8.30
2023-04-12T21:16:52.761Z,8.30
2023-04-12T21:19:54.903Z,8.30
2023-04-12T21:22:57.082Z,8.30
2023-04-12T21:25:59.266Z,8.20
2023-04-12T21:29:01.734Z,8.20
2023-04-12T21:32:05.725Z,8.20
2023-04-12T21:35:08.460Z,8.20
2023-04-12T21:38:10.338Z,8.10
2023-04-12T21:41:13.885Z,8.20
2023-04-12T21:44:15.851Z,8.10
2023-04-12T21:47:19.412Z,8.10
2023-04-12T21:50:21.709Z,8.00
2023-04-12T21:53:23.520Z,8.00
2023-04-12T21:56:25.703Z,7.80
2023-04-12T21:59:27.531Z,7.60
2023-04-12T22:02:29.678Z,7.50
2023-04-12T22:05:31.641Z,7.40
2023-04-12T22:08:34.212Z,7.30
2023-04-12T22:11:36.064Z,7.20
2023-04-12T22:14:46.388Z,7.10
2023-04-12T22:17:48.491Z,7.00
2023-04-12T22:20:51.031Z,6.90
2023-04-12T22:23:55.199Z,6.90
2023-04-12T22:26:57.471Z,6.90
2023-04-12T22:30:00.738Z,6.80
2023-04-12T22:33:02.638Z,6.80
2023-04-12T22:36:06.260Z,6.70
2023-04-12T22:39:11.290Z,6.70
2023-04-12T22:42:13.230Z,6.70
2023-04-12T22:45:16.733Z,6.60
2023-04-12T22:48:20.237Z,6.60
2023-04-12T22:51:22.159Z,6.60
2023-04-12T22:54:25.119Z,6.50
2023-04-12T22:57:27.188Z,6.50
2023-04-12T23:00:30.558Z,6.50
2023-04-12T23:03:32.934Z,6.50
2023-04-12T23:06:35.069Z,6.50
2023-04-12T23:09:37.450Z,6.40
2023-04-12T23:12:39.303Z,6.40
2023-04-12T23:15:45.200Z,6.40
2023-04-12T23:18:48.303Z,6.30
2023-04-12T23:21:50.135Z,6.30
2023-04-12T23:24:51.986Z,6.20
2023-04-12T23:27:53.900Z,6.10
2023-04-12T23:30:57.839Z,6.00
2023-04-12T23:34:03.876Z,6.00
2023-04-12T23:37:05.725Z,5.90
2023-04-12T23:40:14.144Z,5.90
2023-04-12T23:43:15.908Z,5.90
2023-04-12T23:46:18.049Z,5.80
2023-04-12T23:49:19.974Z,5.80
2023-04-12T23:52:21.728Z,5.80
2023-04-12T23:55:23.625Z,5.80
2023-04-12T23:58:26.165Z,5.80
